< Typhoon 200305 2003 Season Typhoon 200307 >
Typhoon 200306 (SOUDELOR)
General InformationTrack Information on Google MapsDetailed Wind InformationList of All Images || NewsDisaster Info.WeblogResourceGoogle EarthGE AnimationAtom FeedGeoJSON
Detalied Best Track (Time Zone = UTC)
Year Month Day Hour Lat. Long. Pressure (hPa) Wind (kt) Class Image Chart
2003 6 12 00 9.1 136.9 1008 0 2 Image Chart
2003 6 12 06 10.1 135.1 1006 0 2 Image Chart
2003 6 12 12 10.8 133.7 1006 0 2 Image Chart
2003 6 12 18 11.0 133.4 1006 0 2 Image Chart
2003 6 13 00 11.2 132.3 1004 0 2 Image Chart
2003 6 13 06 11.2 131.5 1000 35 3 Image Chart
2003 6 13 12 11.4 129.1 1000 35 3 Image Chart
2003 6 13 18 11.4 128.0 996 40 3 Image Chart
2003 6 14 00 11.4 127.5 996 40 3 Image Chart
2003 6 14 06 11.9 126.9 996 40 3 Image Chart
2003 6 14 12 12.4 126.3 996 40 3 Image Chart
2003 6 14 18 13.1 125.9 996 40 3 Image Chart
2003 6 15 00 14.1 125.6 994 45 3 Image Chart
2003 6 15 06 15.0 125.4 990 50 4 Image Chart
2003 6 15 12 15.8 124.9 985 50 4 Image Chart
2003 6 15 18 16.4 124.7 980 55 4 Image Chart
2003 6 16 00 16.9 124.7 980 55 4 Image Chart
2003 6 16 06 17.6 124.1 980 55 4 Image Chart
2003 6 16 12 18.3 123.3 980 55 4 Image Chart
2003 6 16 18 19.2 123.0 980 55 4 Image Chart
2003 6 17 00 19.6 122.8 975 60 4 Image Chart
2003 6 17 06 20.7 123.2 975 60 4 Image Chart
2003 6 17 09 21.4 123.5 975 60 4 Image Chart
2003 6 17 12 22.0 123.6 970 65 5 Image Chart
2003 6 17 15 22.7 123.7 970 65 5 Image Chart
2003 6 17 18 23.6 123.8 970 65 5 Image Chart
2003 6 17 20 24.2 123.8 968 65 5 Image Chart
2003 6 17 21 24.3 123.8 965 70 5 Image Chart
2003 6 18 00 25.1 123.9 960 75 5 Image Chart
2003 6 18 03 25.6 124.1 960 75 5 Image Chart
2003 6 18 06 26.4 124.5 955 80 5 Image Chart
2003 6 18 09 27.1 125.1 955 80 5 Image Chart
2003 6 18 12 27.8 125.5 960 75 5 Image Chart
2003 6 18 15 28.9 125.8 960 75 5 Image Chart
2003 6 18 18 29.9 126.0 965 70 5 Image Chart
2003 6 18 21 31.1 126.9 970 65 5 Image Chart
2003 6 19 00 32.5 128.1 975 60 4 Image Chart
2003 6 19 03 33.9 128.9 975 60 4 Image Chart
2003 6 19 04 34.2 129.2 975 60 4 Image Chart
2003 6 19 06 34.8 129.6 980 55 4 Image Chart
2003 6 19 09 36.2 131.2 980 55 4 Image Chart
2003 6 19 12 36.9 132.0 985 50 4 Image Chart
2003 6 19 15 37.5 133.7 985 0 6 Image Chart
2003 6 19 18 38.7 134.9 988 0 6 Image Chart
2003 6 20 00 40.4 138.2 996 0 6 Image Chart
2003 6 20 06 41.3 140.1 996 0 6 Image Chart
2003 6 20 12 41.5 143.4 996 0 6 Image Chart
2003 6 20 18 42.0 145.6 996 0 6 Image Chart
2003 6 21 00 41.7 147.0 994 0 6 Image Chart
2003 6 21 06 41.1 148.5 994 0 6 Image Chart
2003 6 21 12 40.6 149.8 996 0 6 Image Chart
2003 6 21 18 39.8 151.0 996 0 6 Image Chart
2003 6 22 00 39.2 151.9 996 0 6 Image Chart
2003 6 22 06 38.3 153.4 998 0 6 Image Chart
2003 6 22 12 37.4 154.7 998 0 6 Image Chart
2003 6 22 18 37.0 155.6 998 0 6 Image Chart
2003 6 23 00 37.0 157.1 998 0 6 Image Chart
2003 6 23 06 38.2 159.1 998 0 6 Image Chart
2003 6 23 12 38.8 161.0 998 0 6 Image Chart
2003 6 23 18 39.1 161.9 1002 0 6 Image Chart
2003 6 24 00 39.2 162.5 1004 0 6 Image Chart
Japan Meteorological Agency Best Track Data | Correction Date : 2004-02-17
< Typhoon 200305 2003 Season Typhoon 200307 >

Help